Time;durP1;ratioP1;P1;durP2;ratioP2;P2;SDS_P1;SDS_P2;PMS_P1;PMS_P2;Temp;Humidity;BMP_temperature;BMP_pressure;BME280_temperature;BME280_humidity;BME280_pressure;Samples;Min_cycle;Max_cycle;Signal;HPM_P1;HPM_P2
2022/07/01 00:01:27;;;;;;;0.53;0.53;;;;;;;20.09;85.32;95281.41;4325294;32;20204;-59
2022/07/01 00:03:58;;;;;;;0.60;0.60;;;;;;;20.25;86.01;95298.25;4343682;32;20193;-57
2022/07/01 00:06:25;;;;;;;0.70;0.70;;;;;;;20.22;86.01;95296.28;4344564;32;20307;-57
2022/07/01 00:08:50;;;;;;;2.47;0.80;;;;;;;20.05;88.47;95297.50;4361437;32;20189;-57
2022/07/01 00:11:34;;;;;;;2.70;1.30;;;;;;;19.98;88.52;95291.16;4332724;32;20228;-56
2022/07/01 00:14:01;;;;;;;0.73;0.73;;;;;;;20.08;88.86;95277.16;4340609;32;20215;-57
2022/07/01 00:16:41;;;;;;;1.40;1.30;;;;;;;20.13;89.44;95272.25;4303640;32;20186;-58
2022/07/01 00:19:08;;;;;;;1.23;1.23;;;;;;;20.17;88.94;95285.78;4333061;32;20193;-58
2022/07/01 00:21:34;;;;;;;1.50;1.40;;;;;;;20.20;87.79;95285.84;4367891;32;20199;-57
2022/07/01 00:24:01;;;;;;;0.80;0.80;;;;;;;20.16;87.20;95290.37;4337493;32;20212;-56
2022/07/01 00:26:28;;;;;;;0.87;0.87;;;;;;;20.22;87.55;95302.44;4355065;32;20196;-56
2022/07/01 00:28:55;;;;;;;1.00;0.87;;;;;;;20.23;86.19;95309.41;4358551;32;20184;-57
2022/07/01 00:31:26;;;;;;;0.70;0.70;;;;;;;20.18;85.34;95303.50;4362068;32;20199;-57
2022/07/01 00:33:53;;;;;;;0.93;0.93;;;;;;;20.29;86.38;95309.12;4371733;32;20211;-56
2022/07/01 00:36:39;;;;;;;1.10;1.00;;;;;;;20.30;84.67;95310.69;4366631;32;20190;-56
2022/07/01 00:39:05;;;;;;;0.90;0.90;;;;;;;20.26;84.22;95321.37;4355622;32;20239;-55
2022/07/01 00:41:32;;;;;;;0.70;0.70;;;;;;;20.23;85.19;95330.16;4353037;32;20184;-55
2022/07/01 00:44:00;;;;;;;0.70;0.70;;;;;;;20.15;84.32;95337.34;4342707;32;20197;-57
2022/07/01 00:46:29;;;;;;;0.70;0.70;;;;;;;20.26;86.49;95332.16;4346180;32;20240;-57
2022/07/01 00:49:00;;;;;;;1.00;0.53;;;;;;;20.15;85.34;95326.56;4340442;32;20208;-56
2022/07/01 00:51:28;;;;;;;0.60;0.60;;;;;;;20.10;84.71;95326.84;4347697;32;20247;-56
2022/07/01 00:53:58;;;;;;;0.77;0.77;;;;;;;20.02;84.12;95330.50;4355690;32;20217;-56
2022/07/01 00:56:59;;;;;;;0.77;0.77;;;;;;;20.06;85.17;95336.75;4363654;32;20193;-59
2022/07/01 00:59:28;;;;;;;0.63;0.63;;;;;;;20.10;83.72;95343.00;4346779;32;20232;-56
2022/07/01 01:02:22;;;;;;;0.47;0.47;;;;;;;20.07;83.27;95345.63;4354558;32;20210;-55
2022/07/01 01:04:49;;;;;;;0.63;0.63;;;;;;;20.11;83.92;95365.34;4369544;32;20181;-52
2022/07/01 01:07:16;;;;;;;0.30;0.30;;;;;;;20.07;81.83;95356.41;4355873;32;20193;-56
2022/07/01 01:09:43;;;;;;;0.30;0.30;;;;;;;19.98;80.23;95361.97;4348058;32;20276;-56
2022/07/01 01:12:12;;;;;;;0.10;0.10;;;;;;;20.12;80.00;95374.97;4356077;32;20181;-52
2022/07/01 01:14:49;;;;;;;1.03;0.73;;;;;;;20.07;78.86;95377.94;4337114;32;20249;-55
2022/07/01 01:17:18;;;;;;;0.57;0.57;;;;;;;20.03;79.41;95371.69;4371357;32;20180;-55
2022/07/01 01:19:49;;;;;;;0.03;0.03;;;;;;;20.00;81.62;95367.78;4353910;32;20235;-56
2022/07/01 01:22:19;;;;;;;0.30;0.30;;;;;;;19.94;78.86;95373.81;4345970;32;20193;-55
2022/07/01 01:24:49;;;;;;;0.20;0.20;;;;;;;19.97;80.08;95362.31;4356327;32;20201;-56
2022/07/01 01:27:18;;;;;;;0.43;0.43;;;;;;;19.94;78.37;95357.66;4351256;32;20236;-57
2022/07/01 01:29:45;;;;;;;0.10;0.10;;;;;;;19.82;78.01;95370.09;4319949;32;20201;-57
2022/07/01 01:32:10;;;;;;;0.43;0.43;;;;;;;19.92;77.71;95368.78;4323983;32;20299;-56
2022/07/01 01:34:41;;;;;;;0.20;0.20;;;;;;;19.82;79.34;95375.47;4324832;32;20205;-56
2022/07/01 01:37:12;;;;;;;1.03;0.40;;;;;;;19.88;80.07;95371.41;4342936;32;20192;-55
2022/07/01 01:39:38;;;;;;;0.17;0.17;;;;;;;19.92;79.16;95371.47;4349841;32;20256;-50
2022/07/01 01:42:08;;;;;;;0.40;0.40;;;;;;;19.81;78.49;95365.84;4322191;32;20242;-52
2022/07/01 01:44:33;;;;;;;0.10;0.10;;;;;;;19.55;79.18;95354.84;4323596;32;20201;-56
2022/07/01 01:47:01;;;;;;;0.20;0.20;;;;;;;19.63;79.73;95361.19;4323810;32;20264;-56
2022/07/01 01:49:28;;;;;;;0.43;0.20;;;;;;;19.75;83.44;95350.28;4335208;32;20212;-55
2022/07/01 01:51:56;;;;;;;0.07;0.07;;;;;;;19.68;80.75;95340.16;4338389;32;20207;-54
2022/07/01 01:54:22;;;;;;;0.00;0.00;;;;;;;19.79;81.94;95340.41;4342364;32;20177;-59
2022/07/01 01:57:07;;;;;;;0.43;0.43;;;;;;;19.71;81.00;95334.09;4354296;32;20279;-56
2022/07/01 01:59:34;;;;;;;0.33;0.30;;;;;;;19.58;80.92;95329.94;4325350;32;20233;-55
2022/07/01 02:02:00;;;;;;;0.33;0.33;;;;;;;19.59;81.51;95333.41;4342564;32;20184;-56
2022/07/01 02:04:26;;;;;;;0.20;0.20;;;;;;;19.48;82.58;95323.16;4343082;32;20240;-56
2022/07/01 02:06:57;;;;;;;0.10;0.10;;;;;;;19.36;81.59;95320.56;4315886;32;20189;-56
2022/07/01 02:09:25;;;;;;;0.30;0.30;;;;;;;19.46;85.15;95332.72;4342785;32;20189;-54
2022/07/01 02:12:12;;;;;;;0.10;0.10;;;;;;;19.42;83.60;95337.22;4326382;32;20197;-57
2022/07/01 02:14:37;;;;;;;0.03;0.03;;;;;;;19.46;84.21;95346.94;4332989;32;20219;-56
2022/07/01 02:17:05;;;;;;;0.43;0.20;;;;;;;19.40;83.87;95361.00;4349510;32;20207;-57
2022/07/01 02:19:35;;;;;;;0.00;0.00;;;;;;;19.32;83.16;95348.53;4343762;32;20205;-55
2022/07/01 02:22:03;;;;;;;0.40;0.30;;;;;;;19.20;83.26;95357.44;4363260;32;20196;-56
2022/07/01 02:24:32;;;;;;;0.00;0.00;;;;;;;19.19;83.73;95362.03;4341954;32;20209;-55
2022/07/01 02:27:08;;;;;;;0.93;0.60;;;;;;;19.38;84.19;95366.72;4342025;32;20230;-57
2022/07/01 02:29:34;;;;;;;0.30;0.30;;;;;;;19.37;85.19;95372.47;4344685;32;20261;-55
2022/07/01 02:32:24;;;;;;;0.10;0.10;;;;;;;19.48;84.22;95376.19;4329506;32;20208;-54
2022/07/01 02:34:51;;;;;;;0.20;0.20;;;;;;;19.45;85.69;95382.28;4345961;32;20250;-56
2022/07/01 02:37:20;;;;;;;0.20;0.20;;;;;;;19.45;84.05;95379.59;4341985;32;20252;-57
2022/07/01 02:39:47;;;;;;;2.10;0.37;;;;;;;19.36;83.40;95387.81;4350719;32;20189;-56
2022/07/01 02:42:27;;;;;;;0.40;0.40;;;;;;;19.25;85.98;95386.00;4369995;32;20185;-57
2022/07/01 02:44:55;;;;;;;0.30;0.30;;;;;;;19.34;84.63;95389.28;4327791;32;20205;-57
2022/07/01 02:47:21;;;;;;;0.13;0.13;;;;;;;19.46;85.65;95398.06;4338708;32;20192;-53
2022/07/01 02:49:51;;;;;;;0.67;0.37;;;;;;;19.37;83.93;95402.06;4343822;32;20252;-54
2022/07/01 02:52:18;;;;;;;0.10;0.10;;;;;;;19.37;85.07;95405.53;4338206;32;20261;-57
2022/07/01 02:54:46;;;;;;;0.20;0.20;;;;;;;19.21;84.87;95418.19;4343049;32;20189;-55
2022/07/01 02:57:12;;;;;;;1.17;0.77;;;;;;;19.34;84.95;95408.12;4327716;32;20278;-55
2022/07/01 02:59:38;;;;;;;0.17;0.17;;;;;;;19.45;86.16;95411.88;4369658;32;20193;-54
2022/07/01 03:02:04;;;;;;;0.10;0.10;;;;;;;19.42;85.26;95410.66;4349772;32;20218;-55
2022/07/01 03:04:34;;;;;;;0.20;0.20;;;;;;;19.50;86.20;95411.66;4343068;32;20189;-56
2022/07/01 03:07:00;;;;;;;0.10;0.10;;;;;;;19.52;85.78;95407.50;4343281;32;20272;-56
2022/07/01 03:09:29;;;;;;;0.43;0.43;;;;;;;19.59;86.42;95406.84;4353344;32;20207;-55
2022/07/01 03:12:24;;;;;;;0.30;0.30;;;;;;;19.48;84.47;95405.81;4356100;32;20189;-56
2022/07/01 03:14:55;;;;;;;0.20;0.20;;;;;;;19.54;84.22;95410.59;4345779;32;20200;-56
2022/07/01 03:17:45;;;;;;;0.10;0.10;;;;;;;19.41;85.16;95409.09;4352146;32;20261;-54
2022/07/01 03:20:14;;;;;;;0.10;0.10;;;;;;;19.37;86.84;95416.28;4361334;32;20203;-56
2022/07/01 03:22:42;;;;;;;0.10;0.10;;;;;;;19.61;87.21;95425.34;4363188;32;20197;-56
2022/07/01 03:25:09;;;;;;;0.03;0.03;;;;;;;19.49;85.66;95423.50;4329582;32;20208;-56
2022/07/01 03:27:36;;;;;;;0.37;0.37;;;;;;;19.49;85.34;95423.50;4322086;32;20199;-54
2022/07/01 03:30:06;;;;;;;0.50;0.50;;;;;;;19.54;85.45;95426.72;4361717;32;20295;-55
2022/07/01 03:32:33;;;;;;;0.47;0.43;;;;;;;19.42;84.13;95420.63;4343870;32;20227;-56
2022/07/01 03:35:35;;;;;;;0.10;0.10;;;;;;;19.43;86.10;95427.59;4322095;32;20193;-54
2022/07/01 03:37:46;;;;;;;0.10;0.10;;;;;;;19.50;85.33;95425.88;4334468;32;20250;-56
2022/07/01 03:40:12;;;;;;;0.10;0.10;;;;;;;19.48;85.10;95428.13;4337030;32;20287;-57
2022/07/01 03:42:56;;;;;;;0.03;0.03;;;;;;;19.62;86.12;95427.69;4358560;32;20196;-56
2022/07/01 03:45:21;;;;;;;0.00;0.00;;;;;;;19.71;84.85;95428.31;4364255;32;20189;-61
2022/07/01 03:51:08;;;;;;;0.07;0.07;;;;;;;19.78;86.26;95431.16;4365279;32;20251;-57
2022/07/01 03:56:27;;;;;;;0.10;0.10;;;;;;;19.59;87.08;95438.38;4365496;32;20208;-56
2022/07/01 03:58:55;;;;;;;1.97;0.17;;;;;;;19.58;85.56;95434.91;4351655;32;20193;-58
2022/07/01 04:01:21;;;;;;;0.17;0.17;;;;;;;19.75;87.10;95434.53;4366543;32;20200;-57
2022/07/01 04:03:51;;;;;;;0.20;0.20;;;;;;;19.66;85.77;95449.31;4361839;32;20295;-55
2022/07/01 04:06:21;;;;;;;0.20;0.20;;;;;;;19.70;84.57;95444.81;4351189;32;20331;-56
2022/07/01 04:08:51;;;;;;;0.10;0.10;;;;;;;19.62;85.15;95448.44;4358726;32;20236;-56
2022/07/01 04:11:17;;;;;;;0.20;0.20;;;;;;;19.75;86.27;95448.00;4321112;32;20198;-56
2022/07/01 04:13:49;;;;;;;0.20;0.20;;;;;;;19.61;85.24;95439.59;4311282;32;20214;-57
2022/07/01 04:16:18;;;;;;;0.20;0.20;;;;;;;19.74;87.13;95445.69;4357262;32;20280;-56
2022/07/01 04:18:44;;;;;;;1.13;0.37;;;;;;;20.02;87.88;95446.34;4335155;32;20201;-55
2022/07/01 04:23:53;;;;;;;0.00;0.00;;;;;;;19.90;86.03;95430.28;4319369;32;20295;-55
2022/07/01 04:26:21;;;;;;;0.40;0.40;;;;;;;19.92;82.93;95427.25;4363545;32;20193;-54
2022/07/01 04:28:49;;;;;;;0.20;0.20;;;;;;;19.88;85.50;95425.25;4332724;32;20308;-56
2022/07/01 04:31:14;;;;;;;2.23;0.43;;;;;;;19.97;84.34;95416.19;4295460;32;20211;-56
2022/07/01 04:33:41;;;;;;;4.53;1.07;;;;;;;19.95;85.81;95397.72;4318343;32;20201;-57
2022/07/01 04:36:07;;;;;;;0.10;0.10;;;;;;;20.08;85.30;95393.75;4360334;32;20239;-56
2022/07/01 04:38:34;;;;;;;0.00;0.00;;;;;;;20.10;84.92;95393.41;4358228;32;20197;-54
2022/07/01 04:43:45;;;;;;;0.80;0.73;;;;;;;19.93;82.80;95415.34;4331744;32;20307;-53
2022/07/01 04:46:12;;;;;;;0.40;0.40;;;;;;;19.82;84.00;95420.47;4340518;32;20232;-55
2022/07/01 04:48:39;;;;;;;0.53;0.53;;;;;;;19.72;83.65;95427.19;4348809;32;20263;-56
2022/07/01 04:51:07;;;;;;;0.27;0.27;;;;;;;19.70;84.66;95423.28;4368655;32;20257;-54
2022/07/01 04:53:32;;;;;;;0.20;0.20;;;;;;;19.76;84.50;95409.19;4366095;32;20207;-57
2022/07/01 04:55:59;;;;;;;0.10;0.10;;;;;;;19.79;83.77;95402.31;4343048;32;20201;-57
2022/07/01 04:58:26;;;;;;;0.10;0.10;;;;;;;19.80;82.63;95393.12;4339069;32;20193;-56
2022/07/01 05:00:55;;;;;;;0.20;0.20;;;;;;;19.66;82.74;95390.09;4369236;32;20193;-57
2022/07/01 05:03:23;;;;;;;0.80;0.47;;;;;;;19.67;84.98;95380.91;4352964;32;20207;-56
2022/07/01 05:05:49;;;;;;;0.10;0.10;;;;;;;19.81;85.48;95370.44;4351196;32;20193;-55
2022/07/01 05:08:16;;;;;;;1.67;0.60;;;;;;;19.89;84.82;95369.47;4357004;32;20299;-56
2022/07/01 05:10:42;;;;;;;0.13;0.13;;;;;;;20.08;84.88;95369.50;4333080;32;20193;-56
2022/07/01 05:13:13;;;;;;;0.53;0.53;;;;;;;19.97;83.38;95373.87;4333815;32;20201;-55
2022/07/01 05:15:39;;;;;;;0.63;0.63;;;;;;;19.98;84.25;95380.03;4359981;32;20208;-52
2022/07/01 05:23:43;;;;;;;1.90;0.97;;;;;;;20.10;82.77;95410.34;4363735;32;20276;-54
2022/07/01 05:26:16;;;;;;;0.40;0.40;;;;;;;20.16;83.62;95408.94;4316555;32;20211;-56
2022/07/01 05:28:46;;;;;;;0.30;0.30;;;;;;;20.21;83.37;95405.19;4336999;32;20189;-54
2022/07/01 05:31:13;;;;;;;1.70;0.40;;;;;;;19.99;81.88;95413.94;4338133;32;20215;-55
2022/07/01 05:33:45;;;;;;;0.90;0.80;;;;;;;20.07;82.52;95408.34;4323072;32;20189;-54
2022/07/01 05:36:12;;;;;;;0.30;0.30;;;;;;;20.12;82.05;95397.31;4353827;32;20250;-56
2022/07/01 05:38:39;;;;;;;8.10;4.97;;;;;;;19.93;83.08;95383.03;4302628;32;20210;-57
2022/07/01 05:41:07;;;;;;;3.30;2.20;;;;;;;20.00;83.13;95377.78;4352062;32;20201;-56
2022/07/01 05:43:34;;;;;;;2.50;2.30;;;;;;;20.19;84.26;95386.66;4344292;32;20192;-57
2022/07/01 05:46:10;;;;;;;0.60;0.60;;;;;;;20.23;82.85;95409.09;4335629;32;20271;-56
2022/07/01 05:48:36;;;;;;;1.27;0.83;;;;;;;20.24;83.62;95431.44;4346318;32;20236;-55
2022/07/01 05:51:04;;;;;;;0.23;0.23;;;;;;;20.24;82.52;95442.97;4334000;32;20228;-57
2022/07/01 05:53:31;;;;;;;2.40;1.67;;;;;;;20.28;80.77;95450.37;4334755;32;20197;-46
2022/07/01 05:55:58;;;;;;;0.87;0.83;;;;;;;20.72;84.66;95456.34;4336985;32;20260;-45
2022/07/01 05:58:24;;;;;;;2.90;0.87;;;;;;;20.92;80.82;95463.28;4344993;32;20246;-46
2022/07/01 06:00:51;;;;;;;1.03;1.03;;;;;;;21.23;78.84;95476.63;4339977;32;20244;-45
2022/07/01 06:03:19;;;;;;;0.70;0.70;;;;;;;21.45;77.72;95475.09;4334305;32;20227;-45
2022/07/01 06:05:47;;;;;;;0.60;0.60;;;;;;;21.54;76.44;95467.56;4335820;32;20260;-46
2022/07/01 06:08:12;;;;;;;1.40;1.23;;;;;;;21.58;76.34;95464.94;4337396;32;20198;-47
2022/07/01 06:10:39;;;;;;;0.70;0.70;;;;;;;21.59;75.73;95459.16;4354071;32;20196;-45
2022/07/01 06:13:06;;;;;;;1.00;0.97;;;;;;;21.56;75.92;95464.50;4356265;32;20304;-47
2022/07/01 06:15:33;;;;;;;1.23;1.10;;;;;;;21.60;76.00;95473.44;4340057;32;20190;-46
2022/07/01 06:17:59;;;;;;;0.50;0.50;;;;;;;21.59;76.11;95482.69;4336502;32;20181;-46
2022/07/01 06:20:26;;;;;;;1.20;0.63;;;;;;;21.52;76.26;95491.44;4310450;32;20190;-47
2022/07/01 06:22:52;;;;;;;20.60;1.20;;;;;;;21.26;76.73;95489.41;4328228;32;20248;-45
2022/07/01 06:25:18;;;;;;;0.20;0.20;;;;;;;21.13;76.92;95492.59;4286745;32;20193;-46
2022/07/01 06:27:46;;;;;;;0.27;0.27;;;;;;;21.33;77.16;95504.19;4311724;32;20278;-48
2022/07/01 06:30:14;;;;;;;0.20;0.20;;;;;;;21.21;77.05;95507.81;4298285;32;20194;-47
2022/07/01 06:32:39;;;;;;;0.10;0.10;;;;;;;20.96;78.19;95520.03;4307131;32;20203;-46
2022/07/01 06:35:09;;;;;;;0.10;0.10;;;;;;;20.85;77.55;95520.56;4297885;32;20261;-48
2022/07/01 06:37:36;;;;;;;0.17;0.17;;;;;;;20.82;78.12;95515.09;4299941;32;20243;-43
2022/07/01 06:40:10;;;;;;;0.70;0.67;;;;;;;20.79;77.90;95513.09;4314829;32;20203;-47
2022/07/01 06:42:37;;;;;;;0.33;0.33;;;;;;;20.56;78.15;95519.19;4343288;32;20238;-47
2022/07/01 06:45:04;;;;;;;0.20;0.20;;;;;;;20.42;78.67;95521.56;4330435;32;20203;-47
2022/07/01 06:47:31;;;;;;;6.60;0.67;;;;;;;20.27;79.66;95521.56;4313359;32;20208;-47
2022/07/01 06:49:58;;;;;;;0.30;0.30;;;;;;;20.47;80.34;95521.28;4324648;32;20247;-46
2022/07/01 06:52:23;;;;;;;0.17;0.17;;;;;;;20.75;80.16;95509.56;4330279;32;20286;-51
2022/07/01 06:54:48;;;;;;;0.50;0.50;;;;;;;20.74;79.32;95508.78;4319854;32;20186;-47
2022/07/01 06:57:15;;;;;;;0.20;0.20;;;;;;;20.78;77.88;95503.47;4315338;32;20198;-45
2022/07/01 06:59:44;;;;;;;0.20;0.20;;;;;;;20.83;78.32;95505.88;4326422;32;20205;-47
2022/07/01 07:02:12;;;;;;;0.20;0.20;;;;;;;20.97;78.42;95511.56;4314470;32;20189;-46
2022/07/01 07:04:39;;;;;;;0.50;0.50;;;;;;;21.04;78.57;95514.41;4301727;32;20201;-46
2022/07/01 07:07:05;;;;;;;0.17;0.17;;;;;;;20.98;78.19;95517.75;4292985;32;20236;-47
2022/07/01 07:09:31;;;;;;;0.20;0.20;;;;;;;20.91;77.48;95510.28;4286429;32;20213;-45
2022/07/01 07:11:56;;;;;;;0.40;0.40;;;;;;;20.94;77.53;95517.69;4301537;32;20248;-48
2022/07/01 07:14:21;;;;;;;0.23;0.23;;;;;;;21.10;78.70;95512.97;4309024;32;20185;-45
2022/07/01 07:16:50;;;;;;;0.07;0.07;;;;;;;21.06;75.64;95514.81;4279617;32;20186;-47
2022/07/01 07:19:17;;;;;;;0.30;0.30;;;;;;;21.19;77.20;95516.25;4295659;32;20202;-47
2022/07/01 07:21:44;;;;;;;0.57;0.57;;;;;;;21.12;75.05;95513.41;4316039;32;20295;-49
2022/07/01 07:24:09;;;;;;;1.40;0.30;;;;;;;21.13;75.71;95519.59;4310454;32;20216;-53
2022/07/01 07:26:38;;;;;;;0.40;0.40;;;;;;;21.23;77.22;95513.63;4341322;32;20194;-47
2022/07/01 07:29:06;;;;;;;0.13;0.13;;;;;;;21.13;76.25;95514.97;4346108;32;20211;-48
2022/07/01 07:31:37;;;;;;;0.03;0.03;;;;;;;21.27;76.62;95515.28;4314511;32;20197;-45
2022/07/01 07:34:04;;;;;;;1.00;0.63;;;;;;;21.34;76.06;95519.25;4352243;32;20197;-46
2022/07/01 07:36:31;;;;;;;0.10;0.10;;;;;;;21.25;75.98;95511.37;4342089;32;20207;-45
2022/07/01 07:38:59;;;;;;;0.10;0.10;;;;;;;21.17;75.24;95515.84;4359967;32;20207;-47
2022/07/01 07:41:25;;;;;;;0.30;0.30;;;;;;;21.15;76.47;95510.00;4353400;32;20189;-49
2022/07/01 07:43:53;;;;;;;0.37;0.37;;;;;;;21.08;77.19;95507.16;4344881;32;20181;-44
2022/07/01 07:46:21;;;;;;;0.20;0.20;;;;;;;21.07;77.85;95511.00;4336993;32;20201;-44
2022/07/01 07:48:47;;;;;;;0.37;0.20;;;;;;;21.08;78.12;95526.03;4304830;32;20216;-44
2022/07/01 07:51:18;;;;;;;0.20;0.20;;;;;;;21.06;79.52;95522.13;4354486;32;20231;-46
2022/07/01 07:53:45;;;;;;;0.10;0.10;;;;;;;20.95;78.76;95530.03;4359837;32;20344;-45
2022/07/01 07:56:10;;;;;;;0.77;0.77;;;;;;;21.00;79.07;95532.41;4328956;32;20299;-48
2022/07/01 07:58:41;;;;;;;1.10;0.60;;;;;;;21.07;79.49;95535.28;4329322;32;20264;-44
2022/07/01 08:01:08;;;;;;;0.23;0.23;;;;;;;21.08;78.75;95538.75;4318934;32;20295;-49
2022/07/01 08:03:34;;;;;;;0.40;0.40;;;;;;;21.14;78.23;95546.22;4338285;32;20205;-45
2022/07/01 08:06:01;;;;;;;0.57;0.57;;;;;;;21.11;77.92;95549.63;4336261;32;20211;-45
2022/07/01 08:08:27;;;;;;;0.20;0.20;;;;;;;21.11;78.91;95555.03;4318570;32;20208;-46
2022/07/01 08:10:53;;;;;;;0.30;0.30;;;;;;;21.13;77.93;95560.06;4317753;32;20229;-44
2022/07/01 08:13:21;;;;;;;0.50;0.50;;;;;;;20.84;77.84;95572.94;4303222;32;20214;-47
2022/07/01 08:15:50;;;;;;;0.20;0.20;;;;;;;20.90;78.69;95581.56;4302477;32;20292;-49
2022/07/01 08:18:16;;;;;;;0.60;0.60;;;;;;;20.88;79.62;95600.00;4334144;32;20405;-44
2022/07/01 08:20:42;;;;;;;0.00;0.00;;;;;;;20.19;79.77;95596.81;4364501;32;20227;-45
2022/07/01 08:23:08;;;;;;;0.30;0.30;;;;;;;20.47;82.47;95606.78;4359654;32;20233;-46
2022/07/01 08:25:36;;;;;;;0.00;0.00;;;;;;;19.77;81.42;95628.06;4342101;32;20212;-47
2022/07/01 08:28:03;;;;;;;0.13;0.13;;;;;;;19.62;78.71;95631.50;4344732;32;20238;-45
2022/07/01 08:30:31;;;;;;;0.40;0.40;;;;;;;19.16;80.01;95652.44;4313743;32;20220;-43
2022/07/01 08:33:00;;;;;;;0.00;0.00;;;;;;;18.82;80.55;95677.94;4350634;32;20198;-44
2022/07/01 08:35:25;;;;;;;0.17;0.17;;;;;;;18.83;79.51;95674.91;4310414;32;20220;-48
2022/07/01 08:37:52;;;;;;;0.47;0.27;;;;;;;18.83;81.74;95679.50;4314538;32;20206;-46
2022/07/01 08:40:19;;;;;;;0.13;0.13;;;;;;;18.71;84.57;95684.88;4351643;32;20307;-45
2022/07/01 08:42:44;;;;;;;0.27;0.23;;;;;;;18.31;83.09;95692.75;4334299;32;20256;-47
2022/07/01 08:45:11;;;;;;;0.20;0.20;;;;;;;18.01;81.98;95706.34;4284110;32;20208;-48
2022/07/01 08:48:12;;;;;;;0.10;0.10;;;;;;;17.79;85.17;95696.75;4263053;32;20198;-46
2022/07/01 08:50:39;;;;;;;0.13;0.13;;;;;;;18.07;82.11;95702.34;4303767;32;20312;-46
2022/07/01 08:53:13;;;;;;;0.10;0.10;;;;;;;18.09;82.68;95704.66;4330098;32;20197;-50
2022/07/01 08:58:28;;;;;;;0.17;0.17;;;;;;;17.89;83.41;95700.13;4318431;32;20266;-48
2022/07/01 09:01:20;;;;;;;0.00;0.00;;;;;;;17.90;84.15;95699.00;4342530;32;20262;-45
2022/07/01 09:03:49;;;;;;;0.10;0.10;;;;;;;17.93;84.94;95709.09;4313934;32;20266;-44
2022/07/01 09:06:29;;;;;;;0.13;0.13;;;;;;;17.93;83.48;95696.47;4345697;32;20188;-46
2022/07/01 09:09:14;;;;;;;0.10;0.10;;;;;;;17.91;83.29;95693.31;4328309;32;20208;-44
2022/07/01 09:12:09;;;;;;;0.00;0.00;;;;;;;18.02;82.54;95697.19;4335893;32;20193;-46
2022/07/01 09:14:36;;;;;;;0.27;0.27;;;;;;;17.92;81.74;95692.19;4315753;32;20236;-45
2022/07/01 09:17:05;;;;;;;0.10;0.10;;;;;;;17.94;81.34;95708.78;4340181;32;20193;-45
2022/07/01 09:19:34;;;;;;;0.10;0.10;;;;;;;18.17;82.35;95706.50;4309434;32;20202;-47
2022/07/01 09:22:02;;;;;;;0.10;0.10;;;;;;;17.83;80.54;95700.34;4323256;32;20197;-49
2022/07/01 09:24:42;;;;;;;0.10;0.10;;;;;;;17.89;81.22;95708.97;4301297;32;20265;-54
2022/07/01 09:27:25;;;;;;;0.10;0.10;;;;;;;17.43;80.32;95718.81;4304746;32;20260;-52
2022/07/01 09:29:55;;;;;;;0.20;0.20;;;;;;;16.55;83.35;95708.06;4264099;33;20272;-57
2022/07/01 09:32:22;;;;;;;0.10;0.10;;;;;;;16.48;86.21;95711.22;4317297;32;20176;-55
2022/07/01 09:35:09;;;;;;;0.37;0.37;;;;;;;16.37;86.92;95715.38;4340689;32;20189;-50
2022/07/01 09:37:36;;;;;;;0.10;0.10;;;;;;;16.17;87.79;95707.25;4338543;32;20245;-54
2022/07/01 09:40:03;;;;;;;0.30;0.30;;;;;;;15.99;89.02;95711.84;4341415;32;20215;-57
2022/07/01 09:42:32;;;;;;;0.10;0.10;;;;;;;16.08;90.75;95717.97;4336430;32;20265;-55
2022/07/01 09:45:07;;;;;;;0.30;0.20;;;;;;;16.18;89.87;95714.19;4345646;32;20182;-53
2022/07/01 09:47:36;;;;;;;0.10;0.10;;;;;;;16.20;90.40;95726.13;4349663;32;20254;-54
2022/07/01 09:50:03;;;;;;;0.20;0.17;;;;;;;16.06;91.27;95722.84;4333038;32;20203;-52
2022/07/01 09:52:39;;;;;;;0.03;0.03;;;;;;;16.31;90.53;95724.69;4303626;32;20205;-53
2022/07/01 09:55:08;;;;;;;1.40;0.20;;;;;;;16.31;89.63;95729.25;4323198;32;20213;-47
2022/07/01 09:57:37;;;;;;;0.00;0.00;;;;;;;16.14;90.14;95722.06;4322128;32;20190;-53
2022/07/01 10:00:07;;;;;;;0.03;0.03;;;;;;;16.08;89.87;95729.47;4343874;32;20216;-48
2022/07/01 10:02:35;;;;;;;0.63;0.20;;;;;;;15.87;89.94;95733.88;4321382;32;20316;-54
2022/07/01 10:05:15;;;;;;;0.20;0.20;;;;;;;16.06;91.22;95731.66;4349427;32;20239;-55
2022/07/01 10:08:17;;;;;;;0.20;0.20;;;;;;;16.16;92.78;95743.94;4335515;32;20272;-53
2022/07/01 10:11:24;;;;;;;0.10;0.10;;;;;;;16.17;90.70;95748.19;4351557;32;20263;-55
2022/07/01 10:13:52;;;;;;;0.40;0.40;;;;;;;16.17;90.86;95753.53;4324450;32;20188;-55
2022/07/01 10:16:20;;;;;;;0.30;0.30;;;;;;;16.34;91.67;95753.50;4313245;32;20201;-50
2022/07/01 10:18:48;;;;;;;0.10;0.10;;;;;;;16.36;90.04;95756.66;4337498;32;20254;-53
2022/07/01 10:21:27;;;;;;;0.10;0.10;;;;;;;16.52;90.32;95762.28;4336712;32;20294;-55
2022/07/01 10:24:15;;;;;;;0.10;0.10;;;;;;;16.30;89.18;95768.63;4341593;32;20188;-54
2022/07/01 10:26:46;;;;;;;0.10;0.10;;;;;;;15.86;91.96;95766.31;4323245;32;20202;-57
2022/07/01 10:29:40;;;;;;;0.10;0.10;;;;;;;16.15;92.31;95769.91;4323595;32;20253;-56
2022/07/01 10:32:22;;;;;;;0.17;0.17;;;;;;;16.42;91.06;95771.44;4338264;32;20263;-56
2022/07/01 10:34:48;;;;;;;0.73;0.73;;;;;;;16.48;93.11;95780.88;4315383;32;20201;-56
2022/07/01 10:37:24;;;;;;;0.10;0.10;;;;;;;16.34;91.45;95780.28;4321997;32;20193;-54
2022/07/01 10:40:03;;;;;;;0.40;0.40;;;;;;;16.16;91.97;95786.78;4337629;32;20196;-55
2022/07/01 10:42:59;;;;;;;0.40;0.40;;;;;;;16.29;92.22;95779.66;4295562;32;20194;-56
2022/07/01 10:45:24;;;;;;;0.10;0.10;;;;;;;16.24;91.34;95785.97;4309474;32;20196;-55
2022/07/01 10:48:23;;;;;;;0.40;0.40;;;;;;;16.28;91.14;95789.56;4299659;32;20253;-58
2022/07/01 10:50:51;;;;;;;0.17;0.17;;;;;;;16.33;90.89;95784.06;4252702;32;20218;-56
2022/07/01 10:53:19;;;;;;;0.20;0.20;;;;;;;16.41;91.58;95775.22;4254100;32;20198;-56
2022/07/01 10:55:52;;;;;;;0.50;0.50;;;;;;;16.72;90.95;95774.22;4326486;32;20200;-56
2022/07/01 10:58:36;;;;;;;0.80;0.43;;;;;;;16.47;90.53;95771.25;4321325;32;20241;-55
2022/07/01 11:01:08;;;;;;;0.20;0.20;;;;;;;16.48;90.95;95786.22;4325766;32;20203;-53
2022/07/01 11:03:47;;;;;;;0.67;0.67;;;;;;;16.42;90.96;95784.81;4327313;32;20260;-54
2022/07/01 11:06:14;;;;;;;0.30;0.30;;;;;;;16.46;90.79;95776.94;4348939;32;20243;-55
2022/07/01 11:08:48;;;;;;;0.20;0.20;;;;;;;16.58;88.64;95774.41;4335866;32;20178;-57
2022/07/01 11:11:14;;;;;;;0.20;0.20;;;;;;;16.60;88.66;95782.12;4309073;32;20208;-56
2022/07/01 11:13:42;;;;;;;0.03;0.03;;;;;;;16.78;88.22;95791.69;4333487;32;20223;-55
2022/07/01 11:16:10;;;;;;;1.13;0.97;;;;;;;16.64;88.83;95793.78;4322631;32;20248;-58
2022/07/01 11:18:35;;;;;;;0.50;0.50;;;;;;;16.43;89.94;95799.00;4337177;32;20200;-56
2022/07/01 11:21:09;;;;;;;0.10;0.10;;;;;;;16.35;91.37;95797.94;4342147;32;20192;-54
2022/07/01 11:23:35;;;;;;;0.13;0.13;;;;;;;16.64;90.99;95788.41;4343739;32;20257;-54
2022/07/01 11:26:05;;;;;;;0.10;0.10;;;;;;;16.64;89.64;95791.09;4349711;32;20196;-55
2022/07/01 11:28:38;;;;;;;0.20;0.20;;;;;;;16.58;90.45;95784.31;4346022;32;20213;-56
2022/07/01 11:31:05;;;;;;;0.50;0.50;;;;;;;16.62;90.66;95794.09;4341848;32;20193;-57
2022/07/01 11:33:30;;;;;;;0.10;0.10;;;;;;;16.54;91.09;95792.22;4333947;32;20259;-55
2022/07/01 11:41:33;;;;;;;0.23;0.23;;;;;;;16.37;91.56;95797.59;4331434;32;20215;-57
2022/07/01 11:44:04;;;;;;;0.20;0.20;;;;;;;16.43;91.48;95809.72;4351041;32;20184;-56
2022/07/01 11:46:38;;;;;;;1.10;0.80;;;;;;;16.43;91.97;95809.72;4344494;32;20188;-57
2022/07/01 11:49:12;;;;;;;0.37;0.30;;;;;;;16.48;90.43;95813.00;4351268;32;20192;-56
2022/07/01 11:51:41;;;;;;;0.40;0.40;;;;;;;16.38;91.37;95799.19;4324622;32;20199;-55
2022/07/01 11:54:20;;;;;;;0.20;0.20;;;;;;;16.36;91.70;95783.44;4291197;32;20205;-56
2022/07/01 11:56:46;;;;;;;0.53;0.53;;;;;;;16.38;92.14;95796.50;4345189;32;20268;-58
2022/07/01 11:59:15;;;;;;;0.30;0.30;;;;;;;16.32;93.30;95814.63;4353451;32;20211;-56
2022/07/01 12:01:45;;;;;;;0.07;0.07;;;;;;;16.23;92.66;95829.91;4337811;32;20189;-56
2022/07/01 12:04:14;;;;;;;0.20;0.20;;;;;;;16.31;93.37;95831.78;4342853;32;20188;-55
2022/07/01 12:06:42;;;;;;;0.60;0.47;;;;;;;16.20;93.57;95830.56;4320478;32;20203;-57
2022/07/01 12:09:21;;;;;;;0.27;0.27;;;;;;;16.34;93.05;95827.69;4344511;32;20266;-54
2022/07/01 12:11:51;;;;;;;0.17;0.17;;;;;;;16.42;93.38;95814.28;4320192;32;20304;-55
2022/07/01 12:14:26;;;;;;;0.47;0.47;;;;;;;16.40;92.48;95810.38;4326815;32;20284;-55